sensor_id;sensor_type;location;lat;lon;timestamp;pressure;altitude;pressure_sealevel;temperature;humidity
56671;BME280;42545;50.054;8.306;2022-09-19T00:02:04;99927.09;;;7.44;100.00
56671;BME280;42545;50.054;8.306;2022-09-19T00:04:34;99928.97;;;7.48;100.00
56671;BME280;42545;50.054;8.306;2022-09-19T00:07:05;99929.97;;;7.54;100.00
56671;BME280;42545;50.054;8.306;2022-09-19T00:09:37;99941.28;;;7.51;100.00
56671;BME280;42545;50.054;8.306;2022-09-19T00:12:04;99934.28;;;7.51;100.00
56671;BME280;42545;50.054;8.306;2022-09-19T00:14:33;99935.25;;;7.55;100.00
56671;BME280;42545;50.054;8.306;2022-09-19T00:17:02;99947.47;;;7.53;100.00
56671;BME280;42545;50.054;8.306;2022-09-19T00:19:30;99943.88;;;7.49;100.00
56671;BME280;42545;50.054;8.306;2022-09-19T00:21:59;99939.50;;;7.50;100.00
56671;BME280;42545;50.054;8.306;2022-09-19T00:24:27;99946.81;;;7.62;100.00
56671;BME280;42545;50.054;8.306;2022-09-19T00:27:16;99946.81;;;7.62;100.00
56671;BME280;42545;50.054;8.306;2022-09-19T00:29:46;99933.53;;;7.56;100.00
56671;BME280;42545;50.054;8.306;2022-09-19T00:32:40;99930.84;;;7.53;100.00
56671;BME280;42545;50.054;8.306;2022-09-19T00:35:10;99954.75;;;7.63;100.00
56671;BME280;42545;50.054;8.306;2022-09-19T00:37:37;99951.25;;;7.64;100.00
56671;BME280;42545;50.054;8.306;2022-09-19T00:40:09;99950.28;;;7.61;100.00
56671;BME280;42545;50.054;8.306;2022-09-19T00:42:37;99945.94;;;7.61;100.00
56671;BME280;42545;50.054;8.306;2022-09-19T00:45:09;99962.59;;;7.62;100.00
56671;BME280;42545;50.054;8.306;2022-09-19T00:47:42;99948.38;;;7.55;100.00
56671;BME280;42545;50.054;8.306;2022-09-19T00:50:20;99942.34;;;7.59;100.00
56671;BME280;42545;50.054;8.306;2022-09-19T00:53:03;99955.59;;;7.62;100.00
56671;BME280;42545;50.054;8.306;2022-09-19T00:55:53;99955.72;;;7.67;100.00
56671;BME280;42545;50.054;8.306;2022-09-19T00:58:26;99962.88;;;7.73;100.00
56671;BME280;42545;50.054;8.306;2022-09-19T01:00:58;99960.31;;;7.76;100.00
56671;BME280;42545;50.054;8.306;2022-09-19T01:03:26;99970.91;;;7.79;100.00
56671;BME280;42545;50.054;8.306;2022-09-19T01:06:17;99957.75;;;7.79;100.00
56671;BME280;42545;50.054;8.306;2022-09-19T01:09:06;99968.47;;;7.86;100.00
56671;BME280;42545;50.054;8.306;2022-09-19T01:11:55;99972.09;;;7.92;100.00
56671;BME280;42545;50.054;8.306;2022-09-19T01:14:42;99960.66;;;7.89;100.00
56671;BME280;42545;50.054;8.306;2022-09-19T01:17:22;99976.63;;;7.97;100.00
56671;BME280;42545;50.054;8.306;2022-09-19T01:20:21;99964.25;;;7.93;100.00
56671;BME280;42545;50.054;8.306;2022-09-19T01:23:05;99974.91;;;7.99;100.00
56671;BME280;42545;50.054;8.306;2022-09-19T01:25:47;99969.66;;;7.99;100.00
56671;BME280;42545;50.054;8.306;2022-09-19T01:28:21;99979.47;;;8.05;100.00
56671;BME280;42545;50.054;8.306;2022-09-19T01:30:58;99977.75;;;8.07;100.00
56671;BME280;42545;50.054;8.306;2022-09-19T01:33:51;99976.06;;;8.09;100.00
56671;BME280;42545;50.054;8.306;2022-09-19T01:36:25;99984.81;;;8.09;100.00
56671;BME280;42545;50.054;8.306;2022-09-19T01:38:56;99974.31;;;8.09;100.00
56671;BME280;42545;50.054;8.306;2022-09-19T01:41:24;99975.28;;;8.13;100.00
56671;BME280;42545;50.054;8.306;2022-09-19T01:44:04;99973.47;;;8.12;100.00
56671;BME280;42545;50.054;8.306;2022-09-19T01:46:40;99977.91;;;8.13;100.00
56671;BME280;42545;50.054;8.306;2022-09-19T01:49:20;99977.91;;;8.13;100.00
56671;BME280;42545;50.054;8.306;2022-09-19T01:52:00;99986.81;;;8.18;100.00
56671;BME280;42545;50.054;8.306;2022-09-19T01:54:41;99979.75;;;8.17;100.00
56671;BME280;42545;50.054;8.306;2022-09-19T01:57:39;99969.00;;;8.08;100.00
56671;BME280;42545;50.054;8.306;2022-09-19T02:00:15;99987.72;;;8.20;100.00
56671;BME280;42545;50.054;8.306;2022-09-19T02:02:54;99986.88;;;8.21;100.00
56671;BME280;42545;50.054;8.306;2022-09-19T02:05:34;99985.22;;;8.26;100.00
56671;BME280;42545;50.054;8.306;2022-09-19T02:08:06;99987.84;;;8.26;100.00
56671;BME280;42545;50.054;8.306;2022-09-19T02:10:37;99987.94;;;8.30;100.00
56671;BME280;42545;50.054;8.306;2022-09-19T02:13:07;99991.41;;;8.28;100.00
56671;BME280;42545;50.054;8.306;2022-09-19T02:15:43;99994.94;;;8.29;100.00
56671;BME280;42545;50.054;8.306;2022-09-19T02:18:16;99980.66;;;8.19;100.00
56671;BME280;42545;50.054;8.306;2022-09-19T02:20:48;100000.25;;;8.32;100.00
56671;BME280;42545;50.054;8.306;2022-09-19T02:23:18;99994.13;;;8.32;100.00
56671;BME280;42545;50.054;8.306;2022-09-19T02:25:48;99999.34;;;8.30;100.00
56671;BME280;42545;50.054;8.306;2022-09-19T02:28:20;99996.75;;;8.32;100.00
56671;BME280;42545;50.054;8.306;2022-09-19T02:30:49;99999.47;;;8.35;100.00
56671;BME280;42545;50.054;8.306;2022-09-19T02:33:17;100002.06;;;8.33;100.00
56671;BME280;42545;50.054;8.306;2022-09-19T02:35:48;100004.78;;;8.36;100.00
56671;BME280;42545;50.054;8.306;2022-09-19T02:38:23;100016.25;;;8.40;100.00
56671;BME280;42545;50.054;8.306;2022-09-19T02:41:01;100006.69;;;8.42;100.00
56671;BME280;42545;50.054;8.306;2022-09-19T02:43:36;100018.16;;;8.45;100.00
56671;BME280;42545;50.054;8.306;2022-09-19T02:46:08;100025.22;;;8.48;100.00
56671;BME280;42545;50.054;8.306;2022-09-19T02:48:45;100013.88;;;8.49;100.00
56671;BME280;42545;50.054;8.306;2022-09-19T02:51:20;100013.00;;;8.50;100.00
56671;BME280;42545;50.054;8.306;2022-09-19T02:53:52;100027.13;;;8.54;100.00
56671;BME280;42545;50.054;8.306;2022-09-19T02:56:24;100022.78;;;8.54;100.00
56671;BME280;42545;50.054;8.306;2022-09-19T02:58:57;100024.53;;;8.55;100.00
56671;BME280;42545;50.054;8.306;2022-09-19T03:01:28;100021.03;;;8.55;100.00
56671;BME280;42545;50.054;8.306;2022-09-19T03:04:00;100020.16;;;8.56;100.00
56671;BME280;42545;50.054;8.306;2022-09-19T03:06:44;100020.13;;;8.54;100.00
56671;BME280;42545;50.054;8.306;2022-09-19T03:09:19;100031.59;;;8.56;100.00
56671;BME280;42545;50.054;8.306;2022-09-19T03:11:51;100027.19;;;8.57;100.00
56671;BME280;42545;50.054;8.306;2022-09-19T03:14:22;100030.66;;;8.56;100.00
56671;BME280;42545;50.054;8.306;2022-09-19T03:16:53;100039.47;;;8.58;100.00
56671;BME280;42545;50.054;8.306;2022-09-19T03:19:22;100036.06;;;8.60;100.00
56671;BME280;42545;50.054;8.306;2022-09-19T03:21:52;100042.19;;;8.61;100.00
56671;BME280;42545;50.054;8.306;2022-09-19T03:24:20;100036.94;;;8.61;100.00
56671;BME280;42545;50.054;8.306;2022-09-19T03:26:47;100034.31;;;8.61;100.00
56671;BME280;42545;50.054;8.306;2022-09-19T03:29:15;100051.00;;;8.63;100.00
56671;BME280;42545;50.054;8.306;2022-09-19T03:31:42;100047.53;;;8.64;100.00
56671;BME280;42545;50.054;8.306;2022-09-19T03:34:12;100050.16;;;8.64;100.00
56671;BME280;42545;50.054;8.306;2022-09-19T03:36:39;100056.28;;;8.63;100.00
56671;BME280;42545;50.054;8.306;2022-09-19T03:39:07;100054.56;;;8.65;100.00
56671;BME280;42545;50.054;8.306;2022-09-19T03:41:34;100049.25;;;8.62;100.00
56671;BME280;42545;50.054;8.306;2022-09-19T03:44:03;100064.16;;;8.63;100.00
56671;BME280;42545;50.054;8.306;2022-09-19T03:46:31;100057.13;;;8.62;100.00
56671;BME280;42545;50.054;8.306;2022-09-19T03:48:58;100056.22;;;8.61;100.00
56671;BME280;42545;50.054;8.306;2022-09-19T03:51:30;100066.75;;;8.60;100.00
56671;BME280;42545;50.054;8.306;2022-09-19T03:53:57;100067.63;;;8.60;100.00
56671;BME280;42545;50.054;8.306;2022-09-19T03:56:24;100068.47;;;8.59;100.00
56671;BME280;42545;50.054;8.306;2022-09-19T03:58:51;100059.63;;;8.57;100.00
56671;BME280;42545;50.054;8.306;2022-09-19T04:01:18;100079.91;;;8.61;100.00
56671;BME280;42545;50.054;8.306;2022-09-19T04:03:45;100075.38;;;8.54;100.00
56671;BME280;42545;50.054;8.306;2022-09-19T04:06:11;100087.72;;;8.58;100.00
56671;BME280;42545;50.054;8.306;2022-09-19T04:08:40;100090.41;;;8.61;100.00
56671;BME280;42545;50.054;8.306;2022-09-19T04:11:06;100093.03;;;8.60;100.00
56671;BME280;42545;50.054;8.306;2022-09-19T04:13:34;100100.16;;;8.64;100.00
56671;BME280;42545;50.054;8.306;2022-09-19T04:16:02;100087.00;;;8.64;100.00
56671;BME280;42545;50.054;8.306;2022-09-19T04:18:29;100089.63;;;8.64;100.00
56671;BME280;42545;50.054;8.306;2022-09-19T04:20:56;100087.97;;;8.68;100.00
56671;BME280;42545;50.054;8.306;2022-09-19T04:23:23;100095.81;;;8.66;100.00
56671;BME280;42545;50.054;8.306;2022-09-19T04:25:53;100100.19;;;8.65;100.00
56671;BME280;42545;50.054;8.306;2022-09-19T04:28:21;100091.38;;;8.63;100.00
56671;BME280;42545;50.054;8.306;2022-09-19T04:30:48;100092.25;;;8.64;100.00
56671;BME280;42545;50.054;8.306;2022-09-19T04:33:17;100103.69;;;8.66;100.00
56671;BME280;42545;50.054;8.306;2022-09-19T04:35:45;100101.06;;;8.66;100.00
56671;BME280;42545;50.054;8.306;2022-09-19T04:38:14;100102.78;;;8.64;100.00
56671;BME280;42545;50.054;8.306;2022-09-19T04:40:46;100108.91;;;8.64;100.00
56671;BME280;42545;50.054;8.306;2022-09-19T04:43:15;100108.09;;;8.65;100.00
56671;BME280;42545;50.054;8.306;2022-09-19T04:45:44;100106.38;;;8.68;100.00
56671;BME280;42545;50.054;8.306;2022-09-19T04:48:14;100114.25;;;8.68;100.00
56671;BME280;42545;50.054;8.306;2022-09-19T04:50:42;100114.31;;;8.69;100.00
56671;BME280;42545;50.054;8.306;2022-09-19T04:53:09;100118.69;;;8.70;100.00
56671;BME280;42545;50.054;8.306;2022-09-19T04:55:38;100121.41;;;8.73;100.00
56671;BME280;42545;50.054;8.306;2022-09-19T04:58:06;100122.19;;;8.69;100.00
56671;BME280;42545;50.054;8.306;2022-09-19T05:00:37;100127.47;;;8.69;100.00
56671;BME280;42545;50.054;8.306;2022-09-19T05:03:06;100123.16;;;8.73;100.00
56671;BME280;42545;50.054;8.306;2022-09-19T05:05:35;100128.44;;;8.73;100.00
56671;BME280;42545;50.054;8.306;2022-09-19T05:08:04;100128.34;;;8.70;100.00
56671;BME280;42545;50.054;8.306;2022-09-19T05:10:33;100126.63;;;8.72;100.00
56671;BME280;42545;50.054;8.306;2022-09-19T05:13:00;100125.81;;;8.74;100.00
56671;BME280;42545;50.054;8.306;2022-09-19T05:15:27;100132.78;;;8.72;100.00
56671;BME280;42545;50.054;8.306;2022-09-19T05:17:56;100122.94;;;8.63;100.00
56671;BME280;42545;50.054;8.306;2022-09-19T05:20:24;100137.97;;;8.69;100.00
56671;BME280;42545;50.054;8.306;2022-09-19T05:22:56;100136.31;;;8.73;100.00
56671;BME280;42545;50.054;8.306;2022-09-19T05:25:24;100139.88;;;8.75;100.00
56671;BME280;42545;50.054;8.306;2022-09-19T05:27:51;100150.50;;;8.79;100.00
56671;BME280;42545;50.054;8.306;2022-09-19T05:30:18;100151.41;;;8.81;100.00
56671;BME280;42545;50.054;8.306;2022-09-19T05:32:47;100149.75;;;8.83;100.00
56671;BME280;42545;50.054;8.306;2022-09-19T05:35:15;100159.44;;;8.86;100.00
56671;BME280;42545;50.054;8.306;2022-09-19T05:37:42;100155.94;;;8.85;100.00
56671;BME280;42545;50.054;8.306;2022-09-19T05:40:10;100156.03;;;8.90;100.00
56671;BME280;42545;50.054;8.306;2022-09-19T05:42:40;100156.13;;;8.93;100.00
56671;BME280;42545;50.054;8.306;2022-09-19T05:45:09;100161.41;;;8.95;100.00
56671;BME280;42545;50.054;8.306;2022-09-19T05:47:37;100158.78;;;8.95;100.00
56671;BME280;42545;50.054;8.306;2022-09-19T05:50:06;100172.88;;;8.97;100.00
56671;BME280;42545;50.054;8.306;2022-09-19T05:52:38;100165.75;;;8.93;100.00
56671;BME280;42545;50.054;8.306;2022-09-19T05:55:22;100166.69;;;8.95;100.00
56671;BME280;42545;50.054;8.306;2022-09-19T05:57:50;100174.63;;;8.98;100.00
56671;BME280;42545;50.054;8.306;2022-09-19T06:00:21;100175.59;;;9.01;100.00
56671;BME280;42545;50.054;8.306;2022-09-19T06:02:53;100174.91;;;9.09;100.00
56671;BME280;42545;50.054;8.306;2022-09-19T06:05:21;100171.38;;;9.08;100.00
56671;BME280;42545;50.054;8.306;2022-09-19T06:07:54;100173.19;;;9.09;100.00
56671;BME280;42545;50.054;8.306;2022-09-19T06:10:22;100176.78;;;9.14;100.00
56671;BME280;42545;50.054;8.306;2022-09-19T06:12:49;100187.41;;;9.17;100.00
56671;BME280;42545;50.054;8.306;2022-09-19T06:15:15;100198.88;;;9.21;100.00
56671;BME280;42545;50.054;8.306;2022-09-19T06:17:45;100195.41;;;9.22;100.00
56671;BME280;42545;50.054;8.306;2022-09-19T06:20:15;100193.72;;;9.24;100.00
56671;BME280;42545;50.054;8.306;2022-09-19T06:22:42;100195.47;;;9.25;100.00
56671;BME280;42545;50.054;8.306;2022-09-19T06:25:10;100204.41;;;9.32;100.00
56671;BME280;42545;50.054;8.306;2022-09-19T06:27:38;100204.56;;;9.38;100.00
56671;BME280;42545;50.054;8.306;2022-09-19T06:30:09;100209.94;;;9.42;100.00
56671;BME280;42545;50.054;8.306;2022-09-19T06:32:37;100210.94;;;9.48;100.00
56671;BME280;42545;50.054;8.306;2022-09-19T06:35:05;100218.84;;;9.48;100.00
56671;BME280;42545;50.054;8.306;2022-09-19T06:37:32;100217.13;;;9.50;100.00
56671;BME280;42545;50.054;8.306;2022-09-19T06:39:59;100215.47;;;9.53;100.00
56671;BME280;42545;50.054;8.306;2022-09-19T06:42:38;100226.88;;;9.54;100.00
56671;BME280;42545;50.054;8.306;2022-09-19T06:45:05;100219.00;;;9.55;100.00
56671;BME280;42545;50.054;8.306;2022-09-19T06:47:33;100219.72;;;9.48;100.00
56671;BME280;42545;50.054;8.306;2022-09-19T06:50:00;100218.84;;;9.48;100.00
56671;BME280;42545;50.054;8.306;2022-09-19T06:52:27;100218.91;;;9.51;100.00
56671;BME280;42545;50.054;8.306;2022-09-19T06:54:54;100223.41;;;9.56;100.00
56671;BME280;42545;50.054;8.306;2022-09-19T06:57:23;100225.25;;;9.59;100.00
56671;BME280;42545;50.054;8.306;2022-09-19T06:59:51;100229.66;;;9.60;100.00
56671;BME280;42545;50.054;8.306;2022-09-19T07:02:18;100234.16;;;9.64;100.00
56671;BME280;42545;50.054;8.306;2022-09-19T07:04:46;100232.53;;;9.69;100.00
56671;BME280;42545;50.054;8.306;2022-09-19T07:07:13;100232.47;;;9.68;100.00
56671;BME280;42545;50.054;8.306;2022-09-19T07:09:40;100239.50;;;9.69;100.00
56671;BME280;42545;50.054;8.306;2022-09-19T07:12:08;100242.25;;;9.73;100.00
56671;BME280;42545;50.054;8.306;2022-09-19T07:14:35;100232.72;;;9.78;100.00
56671;BME280;42545;50.054;8.306;2022-09-19T07:17:04;100246.03;;;9.85;100.00
56671;BME280;42545;50.054;8.306;2022-09-19T07:19:31;100244.44;;;9.93;100.00
56671;BME280;42545;50.054;8.306;2022-09-19T07:21:58;100247.41;;;10.08;100.00
56671;BME280;42545;50.054;8.306;2022-09-19T07:24:25;100250.34;;;10.22;100.00
56671;BME280;42545;50.054;8.306;2022-09-19T07:26:52;100254.22;;;10.38;100.00
56671;BME280;42545;50.054;8.306;2022-09-19T07:29:19;100253.44;;;10.44;100.00
56671;BME280;42545;50.054;8.306;2022-09-19T07:31:46;100253.41;;;10.41;98.52
56671;BME280;42545;50.054;8.306;2022-09-19T07:34:15;100255.19;;;10.43;98.33
56671;BME280;42545;50.054;8.306;2022-09-19T07:36:42;100255.38;;;10.52;99.04
56671;BME280;42545;50.054;8.306;2022-09-19T07:39:09;100258.00;;;10.51;97.33
56671;BME280;42545;50.054;8.306;2022-09-19T07:41:36;100256.38;;;10.57;98.15
56671;BME280;42545;50.054;8.306;2022-09-19T07:44:03;100265.06;;;10.52;96.55
56671;BME280;42545;50.054;8.306;2022-09-19T07:46:30;100270.44;;;10.58;97.87
56671;BME280;42545;50.054;8.306;2022-09-19T07:48:57;100266.97;;;10.59;97.20
56671;BME280;42545;50.054;8.306;2022-09-19T07:51:26;100267.06;;;10.65;97.84
56671;BME280;42545;50.054;8.306;2022-09-19T07:53:55;100277.72;;;10.71;97.93
56671;BME280;42545;50.054;8.306;2022-09-19T07:56:23;100280.44;;;10.74;97.03
56671;BME280;42545;50.054;8.306;2022-09-19T07:58:49;100287.25;;;10.63;95.22
56671;BME280;42545;50.054;8.306;2022-09-19T08:01:17;100290.88;;;10.68;95.99
56671;BME280;42545;50.054;8.306;2022-09-19T08:03:43;100289.09;;;10.67;95.47
56671;BME280;42545;50.054;8.306;2022-09-19T08:06:12;100292.56;;;10.65;95.34
56671;BME280;42545;50.054;8.306;2022-09-19T08:08:40;100290.94;;;10.70;95.76
56671;BME280;42545;50.054;8.306;2022-09-19T08:11:07;100302.25;;;10.66;95.07
56671;BME280;42545;50.054;8.306;2022-09-19T08:13:35;100307.72;;;10.75;96.69
56671;BME280;42545;50.054;8.306;2022-09-19T08:16:02;100302.56;;;10.81;95.61
56671;BME280;42545;50.054;8.306;2022-09-19T08:18:29;100310.63;;;10.89;95.46
56671;BME280;42545;50.054;8.306;2022-09-19T08:20:55;100314.31;;;10.99;96.13
56671;BME280;42545;50.054;8.306;2022-09-19T08:23:22;100309.97;;;10.99;93.93
56671;BME280;42545;50.054;8.306;2022-09-19T08:25:50;100317.00;;;11.00;93.61
56671;BME280;42545;50.054;8.306;2022-09-19T08:28:19;100307.34;;;11.01;93.07
56671;BME280;42545;50.054;8.306;2022-09-19T08:30:47;100326.00;;;11.10;93.89
56671;BME280;42545;50.054;8.306;2022-09-19T08:33:14;100315.59;;;11.19;94.09
56671;BME280;42545;50.054;8.306;2022-09-19T08:35:42;100324.56;;;11.29;94.19
56671;BME280;42545;50.054;8.306;2022-09-19T08:38:10;100324.66;;;11.33;94.03
56671;BME280;42545;50.054;8.306;2022-09-19T08:40:46;100330.22;;;11.50;95.25
56671;BME280;42545;50.054;8.306;2022-09-19T08:43:23;100334.78;;;11.61;95.10
56671;BME280;42545;50.054;8.306;2022-09-19T08:46:13;100336.81;;;11.77;96.32
56671;BME280;42545;50.054;8.306;2022-09-19T08:48:50;100336.06;;;11.83;93.60
56671;BME280;42545;50.054;8.306;2022-09-19T08:51:22;100343.31;;;11.95;93.94
56671;BME280;42545;50.054;8.306;2022-09-19T08:53:56;100337.19;;;11.99;91.86
56671;BME280;42545;50.054;8.306;2022-09-19T08:56:25;100335.53;;;12.05;92.30
56671;BME280;42545;50.054;8.306;2022-09-19T08:58:58;100340.03;;;12.11;91.79
56671;BME280;42545;50.054;8.306;2022-09-19T09:01:29;100340.13;;;12.19;92.33
56671;BME280;42545;50.054;8.306;2022-09-19T09:04:06;100339.19;;;12.12;88.89
56671;BME280;42545;50.054;8.306;2022-09-19T09:06:43;100332.94;;;12.07;89.27
56671;BME280;42545;50.054;8.306;2022-09-19T09:09:20;100335.69;;;12.16;89.84
56671;BME280;42545;50.054;8.306;2022-09-19T09:11:58;100338.47;;;12.25;88.58
56671;BME280;42545;50.054;8.306;2022-09-19T09:14:47;100347.47;;;12.38;89.27
56671;BME280;42545;50.054;8.306;2022-09-19T09:17:20;100343.97;;;12.41;86.12
56671;BME280;42545;50.054;8.306;2022-09-19T09:20:06;100342.31;;;12.49;87.80
56671;BME280;42545;50.054;8.306;2022-09-19T09:22:38;100337.09;;;12.55;85.31
56671;BME280;42545;50.054;8.306;2022-09-19T09:25:11;100347.75;;;12.60;86.42
56671;BME280;42545;50.054;8.306;2022-09-19T09:27:42;100334.63;;;12.67;86.04
56671;BME280;42545;50.054;8.306;2022-09-19T09:30:17;100346.06;;;12.65;85.09
56671;BME280;42545;50.054;8.306;2022-09-19T09:32:47;100338.09;;;12.63;85.83
56671;BME280;42545;50.054;8.306;2022-09-19T09:35:23;100332.72;;;12.59;84.70
56671;BME280;42545;50.054;8.306;2022-09-19T09:37:56;100330.97;;;12.59;85.19
56671;BME280;42545;50.054;8.306;2022-09-19T09:40:36;100341.59;;;12.61;84.04
56671;BME280;42545;50.054;8.306;2022-09-19T09:43:21;100329.34;;;12.69;84.13
56671;BME280;42545;50.054;8.306;2022-09-19T09:45:53;100332.94;;;12.76;84.54
56671;BME280;42545;50.054;8.306;2022-09-19T09:48:22;100327.75;;;12.83;84.71
56671;BME280;42545;50.054;8.306;2022-09-19T09:51:03;100328.66;;;12.85;83.36
56671;BME280;42545;50.054;8.306;2022-09-19T09:53:45;100327.75;;;12.86;83.31
56671;BME280;42545;50.054;8.306;2022-09-19T09:56:18;100324.22;;;12.84;82.86
56671;BME280;42545;50.054;8.306;2022-09-19T09:58:57;100329.56;;;12.89;83.45
56671;BME280;42545;50.054;8.306;2022-09-19T10:01:32;100327.03;;;13.01;83.43
56671;BME280;42545;50.054;8.306;2022-09-19T10:04:26;100323.63;;;13.12;81.74
56671;BME280;42545;50.054;8.306;2022-09-19T10:07:03;100311.22;;;13.07;80.04
56671;BME280;42545;50.054;8.306;2022-09-19T10:09:39;100316.63;;;13.17;81.05
56671;BME280;42545;50.054;8.306;2022-09-19T10:12:10;100318.50;;;13.30;81.78
56671;BME280;42545;50.054;8.306;2022-09-19T10:14:41;100319.47;;;13.35;78.17
56671;BME280;42545;50.054;8.306;2022-09-19T10:17:11;100315.94;;;13.38;79.89
56671;BME280;42545;50.054;8.306;2022-09-19T10:19:40;100321.38;;;13.47;78.93
56671;BME280;42545;50.054;8.306;2022-09-19T10:22:08;100317.94;;;13.60;80.38
56671;BME280;42545;50.054;8.306;2022-09-19T10:24:46;100316.22;;;13.65;78.19
56671;BME280;42545;50.054;8.306;2022-09-19T10:27:14;100315.31;;;13.63;78.30
56671;BME280;42545;50.054;8.306;2022-09-19T10:29:55;100316.22;;;13.69;78.16
56671;BME280;42545;50.054;8.306;2022-09-19T10:32:28;100324.25;;;13.78;78.76
56671;BME280;42545;50.054;8.306;2022-09-19T10:35:00;100320.75;;;13.85;77.76
56671;BME280;42545;50.054;8.306;2022-09-19T10:37:26;100308.41;;;13.89;76.82
56671;BME280;42545;50.054;8.306;2022-09-19T10:39:59;100312.81;;;13.85;75.19
56671;BME280;42545;50.054;8.306;2022-09-19T10:42:32;100322.53;;;13.83;75.13
56671;BME280;42545;50.054;8.306;2022-09-19T10:45:02;100311.88;;;13.78;75.42
56671;BME280;42545;50.054;8.306;2022-09-19T10:47:35;100316.25;;;13.73;75.23
56671;BME280;42545;50.054;8.306;2022-09-19T10:50:03;100319.78;;;13.69;75.09
56671;BME280;42545;50.054;8.306;2022-09-19T10:52:32;100325.16;;;13.78;75.64
56671;BME280;42545;50.054;8.306;2022-09-19T10:55:03;100317.25;;;13.86;75.16
56671;BME280;42545;50.054;8.306;2022-09-19T10:57:40;100319.09;;;13.95;74.65
56671;BME280;42545;50.054;8.306;2022-09-19T11:00:24;100316.50;;;14.10;74.57
56671;BME280;42545;50.054;8.306;2022-09-19T11:03:01;100320.06;;;14.12;72.40
56671;BME280;42545;50.054;8.306;2022-09-19T11:05:30;100325.41;;;14.15;72.36
56671;BME280;42545;50.054;8.306;2022-09-19T11:07:58;100321.84;;;14.12;70.92
56671;BME280;42545;50.054;8.306;2022-09-19T11:10:35;100320.16;;;14.28;72.17
56671;BME280;42545;50.054;8.306;2022-09-19T11:13:06;100329.09;;;14.42;71.46
56671;BME280;42545;50.054;8.306;2022-09-19T11:15:34;100315.84;;;14.54;70.66
56671;BME280;42545;50.054;8.306;2022-09-19T11:18:12;100325.69;;;14.68;69.25
56671;BME280;42545;50.054;8.306;2022-09-19T11:20:48;100319.53;;;14.78;67.53
56671;BME280;42545;50.054;8.306;2022-09-19T11:23:42;100321.34;;;14.90;67.73
56671;BME280;42545;50.054;8.306;2022-09-19T11:26:41;100315.16;;;14.97;68.68
56671;BME280;42545;50.054;8.306;2022-09-19T11:29:32;100316.03;;;15.02;66.27
56671;BME280;42545;50.054;8.306;2022-09-19T11:32:08;100311.63;;;14.93;65.33
56671;BME280;42545;50.054;8.306;2022-09-19T11:34:48;100311.63;;;14.95;67.29
56671;BME280;42545;50.054;8.306;2022-09-19T11:37:33;100304.50;;;14.89;66.23
56671;BME280;42545;50.054;8.306;2022-09-19T11:40:20;100304.53;;;14.97;65.94
56671;BME280;42545;50.054;8.306;2022-09-19T11:42:56;100310.75;;;15.08;65.99
56671;BME280;42545;50.054;8.306;2022-09-19T11:45:32;100288.59;;;15.11;64.92
56671;BME280;42545;50.054;8.306;2022-09-19T11:48:22;100302.81;;;15.19;65.94
56671;BME280;42545;50.054;8.306;2022-09-19T11:51:00;100300.16;;;15.42;67.06
56671;BME280;42545;50.054;8.306;2022-09-19T11:53:39;100301.06;;;15.60;64.23
56671;BME280;42545;50.054;8.306;2022-09-19T11:56:19;100307.28;;;15.79;64.98
56671;BME280;42545;50.054;8.306;2022-09-19T11:58:57;100301.94;;;15.91;63.54
56671;BME280;42545;50.054;8.306;2022-09-19T12:01:34;100308.19;;;15.79;61.57
56671;BME280;42545;50.054;8.306;2022-09-19T12:04:16;100308.13;;;15.73;62.58
56671;BME280;42545;50.054;8.306;2022-09-19T12:07:02;100310.81;;;15.70;64.04
56671;BME280;42545;50.054;8.306;2022-09-19T12:09:34;100303.69;;;15.56;62.97
56671;BME280;42545;50.054;8.306;2022-09-19T12:12:07;100297.50;;;15.59;63.87
56671;BME280;42545;50.054;8.306;2022-09-19T12:14:40;100298.38;;;15.67;63.81
56671;BME280;42545;50.054;8.306;2022-09-19T12:17:11;100290.41;;;15.73;64.43
56671;BME280;42545;50.054;8.306;2022-09-19T12:19:43;100290.44;;;15.78;60.41
56671;BME280;42545;50.054;8.306;2022-09-19T12:22:16;100285.13;;;15.80;60.84
56671;BME280;42545;50.054;8.306;2022-09-19T12:24:48;100285.09;;;15.89;62.07
56671;BME280;42545;50.054;8.306;2022-09-19T12:27:22;100287.75;;;15.87;61.65
56671;BME280;42545;50.054;8.306;2022-09-19T12:29:56;100279.75;;;15.84;61.09
56671;BME280;42545;50.054;8.306;2022-09-19T12:32:33;100269.16;;;15.83;61.43
56671;BME280;42545;50.054;8.306;2022-09-19T12:35:14;100270.91;;;15.62;58.70
56671;BME280;42545;50.054;8.306;2022-09-19T12:37:51;100278.88;;;15.68;60.26
56671;BME280;42545;50.054;8.306;2022-09-19T12:40:26;100279.78;;;15.81;61.75
56671;BME280;42545;50.054;8.306;2022-09-19T12:43:00;100276.22;;;15.87;59.71
56671;BME280;42545;50.054;8.306;2022-09-19T12:45:36;100273.56;;;15.98;59.37
56671;BME280;42545;50.054;8.306;2022-09-19T12:48:10;100270.91;;;15.88;58.99
56671;BME280;42545;50.054;8.306;2022-09-19T12:50:42;100280.66;;;15.91;59.40
56671;BME280;42545;50.054;8.306;2022-09-19T12:53:18;100275.31;;;15.88;59.35
56671;BME280;42545;50.054;8.306;2022-09-19T12:55:56;100266.50;;;15.83;59.48
56671;BME280;42545;50.054;8.306;2022-09-19T12:58:27;100275.31;;;15.71;58.89
56671;BME280;42545;50.054;8.306;2022-09-19T13:01:04;100281.56;;;15.61;60.29
56671;BME280;42545;50.054;8.306;2022-09-19T13:03:38;100277.13;;;15.49;59.41
56671;BME280;42545;50.054;8.306;2022-09-19T13:06:10;100278.88;;;15.45;60.63
56671;BME280;42545;50.054;8.306;2022-09-19T13:08:44;100273.56;;;15.42;61.23
56671;BME280;42545;50.054;8.306;2022-09-19T13:11:18;100274.44;;;15.47;61.53
56671;BME280;42545;50.054;8.306;2022-09-19T13:13:51;100269.16;;;15.53;60.71
56671;BME280;42545;50.054;8.306;2022-09-19T13:16:20;100255.84;;;15.52;61.12
56671;BME280;42545;50.054;8.306;2022-09-19T13:18:51;100271.78;;;15.55;60.67
56671;BME280;42545;50.054;8.306;2022-09-19T13:21:38;100257.63;;;15.59;60.60